Phyllis E — WDH6692 — position and weather

sailwx.info

Track history (hours):
 
Tides and Currents Weather Stations Pressure Air Temp Water Temp Dewpoint Dewpoint Depression Visibility Wind Speed Wind Dir Waves Ship Positions

Phyllis E

Owner: Echo Towing Service, Inc., Highlands, TX. More information available from US FCC via Universal Licensing System and Coast Guard Vessel Documentation Center.

Last reported at 2017-Nov-19 07:26 UTC. Time now 2017-Nov-19 08:54 UTC.
Position N 29°45' W 095°11'.

; draft 2.6 m.

Type: Towing. MMSI: 367640680.

Date/timePositionNaut miles runAvg speedWind from/ knotsBaromVisibWave heightAir tempDewpointWater temp
2017-Nov-19 07:26N 29°45' W 095°11'5 1.1
2017-Nov-19 02:25N 29°46' W 095°05'2 2.2
2017-Nov-19 01:34N 29°44' W 095°07'0 4.9
2017-Nov-19 01:30N 29°44' W 095°07'2 4.2
2017-Nov-19 01:01N 29°44' W 095°09'1 0.3
2017-Nov-18 20:45N 29°45' W 095°11'2 4.8
2017-Nov-18 20:24N 29°44' W 095°09'2 0.2
2017-Nov-18 14:15N 29°44' W 095°07'7 4.8
2017-Nov-18 12:48N 29°44' W 095°15'5 2.7
2017-Nov-18 10:51N 29°44' W 095°09'3 2.0
2017-Nov-18 09:06N 29°46' W 095°05'0 0.3
2017-Nov-18 07:37N 29°45' W 095°06'1 4.2
2017-Nov-18 07:25N 29°46' W 095°05'2 5.5
2017-Nov-18 07:00N 29°44' W 095°03'2 4.5
2017-Nov-18 06:30N 29°43' W 095°01'3 5.3
2017-Nov-18 06:00N 29°41' W 094°59'3 4.9
2017-Nov-18 05:26N 29°41' W 094°55'1 2.3
2017-Nov-18 04:59N 29°42' W 094°56'1 2.4
2017-Nov-18 04:30N 29°43' W 094°57'2 4.1
2017-Nov-18 03:58N 29°45' W 094°56'1 0.8
2017-Nov-18 02:48N 29°46' W 094°55'0 0.0
2017-Nov-18 02:08N 29°46' W 094°55'0 0.0
2017-Nov-18 01:59N 29°46' W 094°55'0 0.0
2017-Nov-18 00:49N 29°46' W 094°55'0 0.0
2017-Nov-18 00:23N 29°46' W 094°55'0 0.0
2017-Nov-17 23:47N 29°46' W 094°55'0 0.0
2017-Nov-17 23:26N 29°46' W 094°55'0 0.0
2017-Nov-17 21:32N 29°46' W 094°55'0 0.0
2017-Nov-17 21:30N 29°46' W 094°55'2 0.8
2017-Nov-17 19:12N 29°44' W 094°56'1 4.1
2017-Nov-17 18:57N 29°43' W 094°57'1 2.2
2017-Nov-17 18:19N 29°42' W 094°56'1 1.5
2017-Nov-17 17:54N 29°42' W 094°55'1 3.5
2017-Nov-17 17:28N 29°40' W 094°56'2 4.6
2017-Nov-17 17:00N 29°41' W 094°58'2 4.5
2017-Nov-17 16:30N 29°42' W 095°01'2 4.6
2017-Nov-17 16:00N 29°44' W 095°02'3 4.9
2017-Nov-17 15:28N 29°46' W 095°04'1 2.4
2017-Nov-17 14:53N 29°46' W 095°06'1 0.7
2017-Nov-17 13:52N 29°46' W 095°07'1 2.8
2017-Nov-17 13:30N 29°45' W 095°06'1 1.5
2017-Nov-17 12:56N 29°45' W 095°06'1 1.6
2017-Nov-17 12:30N 29°46' W 095°05'0 0.0
2017-Nov-17 11:58N 29°46' W 095°05'0 0.0
2017-Nov-17 11:20N 29°46' W 095°05'1 4.2
2017-Nov-17 10:59N 29°45' W 095°06'0 0.2
2017-Nov-17 10:30N 29°45' W 095°06'1 2.5
2017-Nov-17 09:55N 29°46' W 095°05'0 0.4
2017-Nov-17 09:29N 29°46' W 095°05'0 0.1
2017-Nov-17 08:59N 29°46' W 095°05'0 0.3
2017-Nov-17 08:17N 29°46' W 095°05'1 1.2
2017-Nov-17 07:21N 29°45' W 095°06'1 2.8
2017-Nov-17 06:51N 29°46' W 095°05'0 0.0
2017-Nov-17 06:27N 29°46' W 095°05'0 0.2
2017-Nov-17 06:00N 29°46' W 095°05'0 0.1
2017-Nov-17 05:28N 29°46' W 095°05'0 0.7
2017-Nov-17 04:59N 29°46' W 095°05'1 1.1
2017-Nov-17 04:03N 29°46' W 095°06'0 0.3
2017-Nov-17 03:58N 29°46' W 095°06'1 1.6
2017-Nov-17 03:27N 29°46' W 095°05'0 0.1
2017-Nov-17 02:29N 29°46' W 095°06'0 0.1
2017-Nov-17 00:40N 29°46' W 095°05'0 1.1
2017-Nov-17 00:30N 29°46' W 095°05'0 0.0
2017-Nov-16 23:56N 29°46' W 095°05'0 0.0
2017-Nov-16 23:27N 29°46' W 095°05'0 0.0
2017-Nov-16 22:53N 29°46' W 095°05'0 0.0
2017-Nov-16 22:29N 29°46' W 095°05'0 0.0
2017-Nov-16 21:59N 29°46' W 095°05'0 0.0
2017-Nov-16 21:30N 29°46' W 095°05'2 0.8
2017-Nov-16 19:11N 29°44' W 095°07'1 7.3
2017-Nov-16 19:00N 29°44' W 095°08'4 6.5
2017-Nov-16 18:24N 29°44' W 095°13'2 0.8
2017-Nov-16 15:58N 29°44' W 095°15'1 2.5
2017-Nov-16 15:30N 29°44' W 095°14'2 3.6
2017-Nov-16 15:00N 29°45' W 095°12'3 3.7
2017-Nov-16 14:17N 29°44' W 095°09'2 1.5
2017-Nov-16 12:41N 29°46' W 095°07'0 0.7
2017-Nov-16 12:22N 29°46' W 095°07'1 1.8
2017-Nov-16 11:52N 29°45' W 095°06'2 6.1
2017-Nov-16 11:30N 29°44' W 095°08'4 7.3
2017-Nov-16 11:00N 29°44' W 095°12'1 3.0
2017-Nov-16 10:30N 29°44' W 095°14'0 0.0
2017-Nov-16 09:57N 29°44' W 095°14'1 2.7
2017-Nov-16 09:25N 29°44' W 095°12'3 5.2
2017-Nov-16 08:56N 29°44' W 095°09'3 5.3
2017-Nov-16 08:24N 29°45' W 095°06'1 2.8
2017-Nov-16 07:55N 29°46' W 095°05'0 0.0
2017-Nov-16 07:28N 29°46' W 095°05'0 0.0
2017-Nov-16 06:52N 29°46' W 095°05'0 0.0
2017-Nov-16 06:24N 29°46' W 095°05'0 0.0
2017-Nov-16 05:46N 29°46' W 095°05'1 2.6
2017-Nov-16 05:27N 29°46' W 095°06'1 1.5
2017-Nov-16 04:40N 29°44' W 095°07'1 4.8
2017-Nov-16 04:29N 29°44' W 095°07'2 4.6
2017-Nov-16 04:00N 29°45' W 095°10'2 4.4
2017-Nov-16 03:30N 29°44' W 095°12'2 4.2
2017-Nov-16 02:59N 29°43' W 095°15'1 2.7
2017-Nov-16 02:30N 29°43' W 095°16'2 4.0
2017-Nov-16 02:00N 29°44' W 095°14'4 6.6
2017-Nov-16 01:24N 29°44' W 095°09'3 4.0
2017-Nov-16 00:39N 29°46' W 095°06'1 2.4
2017-Nov-16 00:20N 29°46' W 095°05'0 0.0
2017-Nov-15 23:57N 29°46' W 095°05'0 0.0
2017-Nov-15 23:30N 29°46' W 095°05'0 0.0
2017-Nov-15 23:00N 29°46' W 095°05'0 0.0
2017-Nov-15 22:29N 29°46' W 095°05'0 0.0
2017-Nov-15 21:59N 29°46' W 095°05'1 0.4
2017-Nov-15 20:18N 29°46' W 095°05'0 0.6
2017-Nov-15 19:53N 29°46' W 095°05'0 0.6
2017-Nov-15 19:23N 29°46' W 095°05'0 0.2
2017-Nov-15 18:11N 29°46' W 095°05'0 0.0
2017-Nov-15 18:00N 29°46' W 095°05'1 1.3
2017-Nov-15 17:21N 29°46' W 095°06'0 0.0
2017-Nov-15 16:53N 29°46' W 095°06'2 0.4
2017-Nov-15 11:02N 29°47' W 095°04'0 6.1
2017-Nov-15 11:00N 29°47' W 095°05'1 2.1
2017-Nov-15 10:28N 29°46' W 095°05'0 0.0
2017-Nov-15 09:55N 29°46' W 095°05'0 0.0
2017-Nov-15 09:29N 29°46' W 095°05'0 0.0
2017-Nov-15 08:55N 29°46' W 095°05'0 0.0
2017-Nov-15 08:30N 29°46' W 095°05'1 1.4
2017-Nov-15 08:00N 29°46' W 095°06'1 1.8
2017-Nov-15 07:25N 29°46' W 095°07'0 0.7
2017-Nov-15 07:00N 29°46' W 095°07'1 2.2
2017-Nov-15 06:30N 29°45' W 095°06'1 0.8
2017-Nov-15 05:46N 29°46' W 095°05'0 0.0
2017-Nov-15 04:40N 29°46' W 095°06'0 0.5
2017-Nov-15 04:28N 29°46' W 095°06'0 0.2
2017-Nov-15 03:57N 29°46' W 095°05'0 0.0
2017-Nov-15 03:30N 29°46' W 095°05'0 0.0
2017-Nov-15 02:59N 29°46' W 095°05'0 0.0
2017-Nov-15 02:24N 29°46' W 095°05'0 0.0
2017-Nov-15 01:58N 29°46' W 095°05'0 0.0
2017-Nov-15 00:08N 29°46' W 095°05'0 0.0
2017-Nov-14 23:59N 29°46' W 095°05'0 0.0
2017-Nov-14 23:28N 29°46' W 095°05'0 0.0
2017-Nov-14 21:19N 29°46' W 095°05'0 0.9
2017-Nov-14 20:58N 29°46' W 095°05'3 5.9
2017-Nov-14 20:30N 29°44' W 095°03'3 6.1
2017-Nov-14 19:59N 29°42' W 095°00'3 5.7
2017-Nov-14 19:30N 29°41' W 094°57'2 3.2
2017-Nov-14 18:59N 29°41' W 094°55'1 1.5
2017-Nov-14 18:27N 29°42' W 094°56'1 2.7
2017-Nov-14 18:00N 29°43' W 094°57'3 2.2
2017-Nov-14 16:38N 29°46' W 094°55'1 1.4
2017-Nov-14 16:08N 29°45' W 094°56'1 4.9
2017-Nov-14 15:54N 29°44' W 094°56'1 3.1
2017-Nov-14 15:29N 29°43' W 094°56'1 2.7
2017-Nov-14 15:00N 29°42' W 094°55'2 3.4
2017-Nov-14 14:30N 29°41' W 094°57'3 5.0
2017-Nov-14 14:00N 29°41' W 094°59'3 5.5
2017-Nov-14 13:30N 29°44' W 095°01'3 5.7
2017-Nov-14 12:54N 29°46' W 095°05'1 3.2
2017-Nov-14 12:30N 29°46' W 095°06'0 0.0
2017-Nov-14 11:59N 29°46' W 095°06'0 0.0
2017-Nov-14 09:35N 29°46' W 095°06'0 4.3
2017-Nov-14 09:28N 29°45' W 095°06'1 1.5
2017-Nov-14 08:56N 29°46' W 095°05'3 5.8
2017-Nov-14 08:29N 29°44' W 095°03'2 5.0
2017-Nov-14 08:00N 29°42' W 095°01'3 5.2
2017-Nov-14 07:30N 29°40' W 094°59'3 5.9
2017-Nov-14 07:00N 29°38' W 094°58'3 5.2
2017-Nov-14 06:30N 29°35' W 094°56'8 0.2
2017-Nov-12 20:03N 29°29' W 094°51'0 3.6
2017-Nov-12 19:58N 29°29' W 094°52'2 3.8
2017-Nov-12 19:31N 29°30' W 094°53'2 3.8
2017-Nov-12 19:00N 29°32' W 094°54'2 4.0
2017-Nov-12 18:31N 29°34' W 094°55'2 4.0
2017-Nov-12 18:01N 29°35' W 094°56'2 3.9
2017-Nov-12 17:31N 29°37' W 094°58'2 3.9
2017-Nov-12 17:00N 29°37' W 094°60'1 2.8
2017-Nov-12 16:30N 29°37' W 095°01'0 0.1
2017-Nov-12 16:01N 29°37' W 095°02'0 0.0
2017-Nov-12 15:31N 29°37' W 095°02'0 0.0
2017-Nov-12 15:00N 29°37' W 095°02'0 0.0
2017-Nov-12 14:31N 29°37' W 095°02'0 0.0
2017-Nov-12 14:00N 29°37' W 095°02'0 0.0
2017-Nov-12 13:30N 29°37' W 095°02'0 0.0
2017-Nov-12 13:00N 29°37' W 095°02'0 0.0
2017-Nov-12 12:31N 29°37' W 095°02'0 0.0
2017-Nov-12 12:00N 29°37' W 095°02'0 0.0
2017-Nov-12 11:30N 29°37' W 095°02'0 0.0
2017-Nov-12 11:00N 29°37' W 095°02'0 0.0
2017-Nov-12 10:30N 29°37' W 095°02'0 0.0
2017-Nov-12 10:00N 29°37' W 095°02'0 0.0
2017-Nov-12 09:30N 29°37' W 095°02'0 0.0
2017-Nov-12 09:00N 29°37' W 095°02'0 0.0
2017-Nov-12 08:30N 29°37' W 095°02'0 0.0
2017-Nov-12 08:01N 29°37' W 095°02'0 0.0
2017-Nov-12 07:30N 29°37' W 095°02'0 0.0
2017-Nov-12 07:01N 29°37' W 095°02'0 0.0
2017-Nov-12 06:30N 29°37' W 095°02'0 0.0
2017-Nov-12 06:01N 29°37' W 095°02'0 0.0
2017-Nov-12 05:30N 29°37' W 095°02'0 0.0
2017-Nov-12 05:00N 29°37' W 095°02'0 0.0
2017-Nov-12 04:31N 29°37' W 095°02'0 0.0
2017-Nov-12 04:00N 29°37' W 095°02'0 0.0
2017-Nov-12 03:31N 29°37' W 095°02'0 0.0
2017-Nov-12 03:00N 29°37' W 095°02'0 0.0
2017-Nov-12 02:30N 29°37' W 095°02'0 0.0
2017-Nov-12 02:00N 29°37' W 095°02'0 0.0
2017-Nov-12 01:31N 29°37' W 095°02'0 0.0
2017-Nov-12 01:01N 29°37' W 095°02'0 0.0
2017-Nov-12 00:30N 29°37' W 095°02'0 0.0
2017-Nov-12 00:00N 29°37' W 095°02'0 0.0
2017-Nov-11 23:30N 29°37' W 095°02'0 0.0
2017-Nov-11 23:00N 29°37' W 095°02'0 0.0
2017-Nov-11 22:30N 29°37' W 095°02'0 0.0
2017-Nov-11 22:00N 29°37' W 095°02'0 0.0
2017-Nov-11 21:28N 29°37' W 095°02'0 0.5
2017-Nov-11 21:00N 29°37' W 095°01'0 0.3
2017-Nov-11 20:31N 29°37' W 095°01'0 0.2
2017-Nov-11 20:00N 29°37' W 095°01'0 0.1
2017-Nov-11 19:30N 29°37' W 095°02'0 0.0
2017-Nov-11 19:01N 29°37' W 095°02'0 0.0
2017-Nov-11 18:30N 29°37' W 095°02'0 0.0
2017-Nov-11 18:00N 29°37' W 095°02'0 0.0
2017-Nov-11 17:31N 29°37' W 095°02'0 0.0
2017-Nov-11 16:50N 29°37' W 095°02'0 0.0
2017-Nov-11 16:30N 29°37' W 095°02'0 0.0
2017-Nov-11 15:07N 29°37' W 095°02'0 0.1
2017-Nov-11 15:01N 29°37' W 095°02'0 0.0
2017-Nov-11 14:30N 29°37' W 095°02'0 0.0
2017-Nov-11 14:01N 29°37' W 095°02'0 0.0
2017-Nov-11 13:31N 29°37' W 095°02'0 0.0
2017-Nov-11 13:01N 29°37' W 095°02'0 0.0
2017-Nov-11 12:30N 29°37' W 095°02'0 0.0
2017-Nov-11 12:00N 29°37' W 095°02'0 0.0
2017-Nov-11 11:31N 29°37' W 095°02'0 0.0
2017-Nov-11 11:01N 29°37' W 095°02'0 0.0
2017-Nov-11 10:31N 29°37' W 095°02'0 0.0
2017-Nov-11 10:01N 29°37' W 095°02'0 0.0
2017-Nov-11 09:30N 29°37' W 095°02'0 0.0
2017-Nov-11 09:01N 29°37' W 095°02'0 0.0
2017-Nov-11 08:30N 29°37' W 095°02'0 0.0
2017-Nov-11 08:00N 29°37' W 095°02'0 0.0
2017-Nov-11 07:31N 29°37' W 095°02'0 0.0
2017-Nov-11 07:01N 29°37' W 095°02'0 0.0
2017-Nov-11 06:30N 29°37' W 095°02'0 0.0
2017-Nov-11 06:01N 29°37' W 095°02'0 0.1
2017-Nov-11 05:30N 29°37' W 095°01'0 0.1
2017-Nov-11 05:01N 29°37' W 095°01'0 0.0
2017-Nov-11 04:31N 29°37' W 095°01'0 0.4
2017-Nov-11 04:01N 29°37' W 095°01'3 5.4
2017-Nov-11 03:31N 29°37' W 094°58'3 5.5
2017-Nov-11 03:01N 29°40' W 094°58'3 6.6
2017-Nov-11 02:30N 29°42' W 095°01'5 6.4
2017-Nov-11 01:47N 29°46' W 095°04'1 0.6
2017-Nov-11 00:18N 29°46' W 095°05'0 0.0
2017-Nov-10 22:51N 29°46' W 095°05'0 0.0
2017-Nov-10 21:15N 29°46' W 095°05'0 1.1
2017-Nov-10 20:51N 29°46' W 095°05'2 5.3
2017-Nov-10 20:25N 29°44' W 095°03'2 4.0
2017-Nov-10 20:00N 29°44' W 095°01'0 0.6
2017-Nov-10 19:15N 29°43' W 095°01'0 0.0
2017-Nov-10 00:08N 29°44' W 095°01'0 2.2
2017-Nov-09 23:55N 29°43' W 095°01'0 0.0
2017-Nov-09 22:54N 29°43' W 095°01'0 0.3
2017-Nov-09 22:24N 29°44' W 095°01'3 5.5
2017-Nov-09 21:47N 29°46' W 095°04'1 0.2
2017-Nov-09 18:14N 29°46' W 095°05'2 1.3
2017-Nov-09 16:24N 29°44' W 095°03'2 5.3
2017-Nov-09 16:00N 29°43' W 095°01'2 4.9
2017-Nov-09 15:30N 29°41' W 094°59'2 4.3
2017-Nov-09 14:56N 29°41' W 094°57'1 3.2
2017-Nov-09 14:30N 29°41' W 094°55'1 1.7
2017-Nov-09 13:55N 29°42' W 094°56'1 1.2
2017-Nov-09 13:30N 29°43' W 094°56'1 2.6
2017-Nov-09 12:59N 29°42' W 094°55'2 3.5
2017-Nov-09 12:30N 29°41' W 094°57'3 5.5
2017-Nov-09 12:00N 29°42' W 094°60'3 6.2
2017-Nov-09 11:28N 29°44' W 095°03'3 6.6
2017-Nov-09 11:00N 29°46' W 095°05'3 3.3
2017-Nov-09 10:12N 29°44' W 095°03'1 6.0
2017-Nov-09 10:00N 29°44' W 095°02'1 1.0
2017-Nov-09 09:29N 29°44' W 095°01'0 0.0
2017-Nov-09 09:00N 29°44' W 095°01'0 0.0
2017-Nov-09 08:29N 29°44' W 095°01'0 0.0
2017-Nov-09 07:57N 29°44' W 095°01'0 0.0
2017-Nov-09 07:30N 29°44' W 095°01'  
Track history (hours):
 
Tides and Currents Weather Stations Pressure Air Temp Water Temp Dewpoint Dewpoint Depression Visibility Wind Speed Wind Dir Waves Ship Positions

Phyllis E

Owner: Echo Towing Service, Inc., Highlands, TX. More information available from US FCC via Universal Licensing System and Coast Guard Vessel Documentation Center.

Last reported at 2017-Nov-19 07:26 UTC. Time now 2017-Nov-19 08:54 UTC.
Position N 29°45' W 095°11'.

; draft 2.6 m.

Type: Towing. MMSI: 367640680.

Date/timePositionNaut miles runAvg speedWind from/ knotsBaromVisibWave heightAir tempDewpointWater temp
2017-Nov-19 07:26N 29°45' W 095°11'5 1.1
2017-Nov-19 02:25N 29°46' W 095°05'2 2.2
2017-Nov-19 01:34N 29°44' W 095°07'0 4.9
2017-Nov-19 01:30N 29°44' W 095°07'2 4.2
2017-Nov-19 01:01N 29°44' W 095°09'1 0.3
2017-Nov-18 20:45N 29°45' W 095°11'2 4.8
2017-Nov-18 20:24N 29°44' W 095°09'2 0.2
2017-Nov-18 14:15N 29°44' W 095°07'7 4.8
2017-Nov-18 12:48N 29°44' W 095°15'5 2.7
2017-Nov-18 10:51N 29°44' W 095°09'3 2.0
2017-Nov-18 09:06N 29°46' W 095°05'0 0.3
2017-Nov-18 07:37N 29°45' W 095°06'1 4.2
2017-Nov-18 07:25N 29°46' W 095°05'2 5.5
2017-Nov-18 07:00N 29°44' W 095°03'2 4.5
2017-Nov-18 06:30N 29°43' W 095°01'3 5.3
2017-Nov-18 06:00N 29°41' W 094°59'3 4.9
2017-Nov-18 05:26N 29°41' W 094°55'1 2.3
2017-Nov-18 04:59N 29°42' W 094°56'1 2.4
2017-Nov-18 04:30N 29°43' W 094°57'2 4.1
2017-Nov-18 03:58N 29°45' W 094°56'1 0.8
2017-Nov-18 02:48N 29°46' W 094°55'0 0.0
2017-Nov-18 02:08N 29°46' W 094°55'0 0.0
2017-Nov-18 01:59N 29°46' W 094°55'0 0.0
2017-Nov-18 00:49N 29°46' W 094°55'0 0.0
2017-Nov-18 00:23N 29°46' W 094°55'0 0.0
2017-Nov-17 23:47N 29°46' W 094°55'0 0.0
2017-Nov-17 23:26N 29°46' W 094°55'0 0.0
2017-Nov-17 21:32N 29°46' W 094°55'0 0.0
2017-Nov-17 21:30N 29°46' W 094°55'2 0.8
2017-Nov-17 19:12N 29°44' W 094°56'1 4.1
2017-Nov-17 18:57N 29°43' W 094°57'1 2.2
2017-Nov-17 18:19N 29°42' W 094°56'1 1.5
2017-Nov-17 17:54N 29°42' W 094°55'1 3.5
2017-Nov-17 17:28N 29°40' W 094°56'2 4.6
2017-Nov-17 17:00N 29°41' W 094°58'2 4.5
2017-Nov-17 16:30N 29°42' W 095°01'2 4.6
2017-Nov-17 16:00N 29°44' W 095°02'3 4.9
2017-Nov-17 15:28N 29°46' W 095°04'1 2.4
2017-Nov-17 14:53N 29°46' W 095°06'1 0.7
2017-Nov-17 13:52N 29°46' W 095°07'1 2.8
2017-Nov-17 13:30N 29°45' W 095°06'1 1.5
2017-Nov-17 12:56N 29°45' W 095°06'1 1.6
2017-Nov-17 12:30N 29°46' W 095°05'0 0.0
2017-Nov-17 11:58N 29°46' W 095°05'0 0.0
2017-Nov-17 11:20N 29°46' W 095°05'1 4.2
2017-Nov-17 10:59N 29°45' W 095°06'0 0.2
2017-Nov-17 10:30N 29°45' W 095°06'1 2.5
2017-Nov-17 09:55N 29°46' W 095°05'0 0.4
2017-Nov-17 09:29N 29°46' W 095°05'0 0.1
2017-Nov-17 08:59N 29°46' W 095°05'0 0.3
2017-Nov-17 08:17N 29°46' W 095°05'1 1.2
2017-Nov-17 07:21N 29°45' W 095°06'1 2.8
2017-Nov-17 06:51N 29°46' W 095°05'0 0.0
2017-Nov-17 06:27N 29°46' W 095°05'0 0.2
2017-Nov-17 06:00N 29°46' W 095°05'0 0.1
2017-Nov-17 05:28N 29°46' W 095°05'0 0.7
2017-Nov-17 04:59N 29°46' W 095°05'1 1.1
2017-Nov-17 04:03N 29°46' W 095°06'0 0.3
2017-Nov-17 03:58N 29°46' W 095°06'1 1.6
2017-Nov-17 03:27N 29°46' W 095°05'0 0.1
2017-Nov-17 02:29N 29°46' W 095°06'0 0.1
2017-Nov-17 00:40N 29°46' W 095°05'0 1.1
2017-Nov-17 00:30N 29°46' W 095°05'0 0.0
2017-Nov-16 23:56N 29°46' W 095°05'0 0.0
2017-Nov-16 23:27N 29°46' W 095°05'0 0.0
2017-Nov-16 22:53N 29°46' W 095°05'0 0.0
2017-Nov-16 22:29N 29°46' W 095°05'0 0.0
2017-Nov-16 21:59N 29°46' W 095°05'0 0.0
2017-Nov-16 21:30N 29°46' W 095°05'2 0.8
2017-Nov-16 19:11N 29°44' W 095°07'1 7.3
2017-Nov-16 19:00N 29°44' W 095°08'4 6.5
2017-Nov-16 18:24N 29°44' W 095°13'2 0.8
2017-Nov-16 15:58N 29°44' W 095°15'1 2.5
2017-Nov-16 15:30N 29°44' W 095°14'2 3.6
2017-Nov-16 15:00N 29°45' W 095°12'3 3.7
2017-Nov-16 14:17N 29°44' W 095°09'2 1.5
2017-Nov-16 12:41N 29°46' W 095°07'0 0.7
2017-Nov-16 12:22N 29°46' W 095°07'1 1.8
2017-Nov-16 11:52N 29°45' W 095°06'2 6.1
2017-Nov-16 11:30N 29°44' W 095°08'4 7.3
2017-Nov-16 11:00N 29°44' W 095°12'1 3.0
2017-Nov-16 10:30N 29°44' W 095°14'0 0.0
2017-Nov-16 09:57N 29°44' W 095°14'1 2.7
2017-Nov-16 09:25N 29°44' W 095°12'3 5.2
2017-Nov-16 08:56N 29°44' W 095°09'3 5.3
2017-Nov-16 08:24N 29°45' W 095°06'1 2.8
2017-Nov-16 07:55N 29°46' W 095°05'0 0.0
2017-Nov-16 07:28N 29°46' W 095°05'0 0.0
2017-Nov-16 06:52N 29°46' W 095°05'0 0.0
2017-Nov-16 06:24N 29°46' W 095°05'0 0.0
2017-Nov-16 05:46N 29°46' W 095°05'1 2.6
2017-Nov-16 05:27N 29°46' W 095°06'1 1.5
2017-Nov-16 04:40N 29°44' W 095°07'1 4.8
2017-Nov-16 04:29N 29°44' W 095°07'2 4.6
2017-Nov-16 04:00N 29°45' W 095°10'2 4.4
2017-Nov-16 03:30N 29°44' W 095°12'2 4.2
2017-Nov-16 02:59N 29°43' W 095°15'1 2.7
2017-Nov-16 02:30N 29°43' W 095°16'2 4.0
2017-Nov-16 02:00N 29°44' W 095°14'4 6.6
2017-Nov-16 01:24N 29°44' W 095°09'3 4.0
2017-Nov-16 00:39N 29°46' W 095°06'1 2.4
2017-Nov-16 00:20N 29°46' W 095°05'0 0.0
2017-Nov-15 23:57N 29°46' W 095°05'0 0.0
2017-Nov-15 23:30N 29°46' W 095°05'0 0.0
2017-Nov-15 23:00N 29°46' W 095°05'0 0.0
2017-Nov-15 22:29N 29°46' W 095°05'0 0.0
2017-Nov-15 21:59N 29°46' W 095°05'1 0.4
2017-Nov-15 20:18N 29°46' W 095°05'0 0.6
2017-Nov-15 19:53N 29°46' W 095°05'0 0.6
2017-Nov-15 19:23N 29°46' W 095°05'0 0.2
2017-Nov-15 18:11N 29°46' W 095°05'0 0.0
2017-Nov-15 18:00N 29°46' W 095°05'1 1.3
2017-Nov-15 17:21N 29°46' W 095°06'0 0.0
2017-Nov-15 16:53N 29°46' W 095°06'2 0.4
2017-Nov-15 11:02N 29°47' W 095°04'0 6.1
2017-Nov-15 11:00N 29°47' W 095°05'1 2.1
2017-Nov-15 10:28N 29°46' W 095°05'0 0.0
2017-Nov-15 09:55N 29°46' W 095°05'0 0.0
2017-Nov-15 09:29N 29°46' W 095°05'0 0.0
2017-Nov-15 08:55N 29°46' W 095°05'0 0.0
2017-Nov-15 08:30N 29°46' W 095°05'1 1.4
2017-Nov-15 08:00N 29°46' W 095°06'1 1.8
2017-Nov-15 07:25N 29°46' W 095°07'0 0.7
2017-Nov-15 07:00N 29°46' W 095°07'1 2.2
2017-Nov-15 06:30N 29°45' W 095°06'1 0.8
2017-Nov-15 05:46N 29°46' W 095°05'0 0.0
2017-Nov-15 04:40N 29°46' W 095°06'0 0.5
2017-Nov-15 04:28N 29°46' W 095°06'0 0.2
2017-Nov-15 03:57N 29°46' W 095°05'0 0.0
2017-Nov-15 03:30N 29°46' W 095°05'0 0.0
2017-Nov-15 02:59N 29°46' W 095°05'0 0.0
2017-Nov-15 02:24N 29°46' W 095°05'0 0.0
2017-Nov-15 01:58N 29°46' W 095°05'0 0.0
2017-Nov-15 00:08N 29°46' W 095°05'0 0.0
2017-Nov-14 23:59N 29°46' W 095°05'0 0.0
2017-Nov-14 23:28N 29°46' W 095°05'0 0.0
2017-Nov-14 21:19N 29°46' W 095°05'0 0.9
2017-Nov-14 20:58N 29°46' W 095°05'3 5.9
2017-Nov-14 20:30N 29°44' W 095°03'3 6.1
2017-Nov-14 19:59N 29°42' W 095°00'3 5.7
2017-Nov-14 19:30N 29°41' W 094°57'2 3.2
2017-Nov-14 18:59N 29°41' W 094°55'1 1.5
2017-Nov-14 18:27N 29°42' W 094°56'1 2.7
2017-Nov-14 18:00N 29°43' W 094°57'3 2.2
2017-Nov-14 16:38N 29°46' W 094°55'1 1.4
2017-Nov-14 16:08N 29°45' W 094°56'1 4.9
2017-Nov-14 15:54N 29°44' W 094°56'1 3.1
2017-Nov-14 15:29N 29°43' W 094°56'1 2.7
2017-Nov-14 15:00N 29°42' W 094°55'2 3.4
2017-Nov-14 14:30N 29°41' W 094°57'3 5.0
2017-Nov-14 14:00N 29°41' W 094°59'3 5.5
2017-Nov-14 13:30N 29°44' W 095°01'3 5.7
2017-Nov-14 12:54N 29°46' W 095°05'1 3.2
2017-Nov-14 12:30N 29°46' W 095°06'0 0.0
2017-Nov-14 11:59N 29°46' W 095°06'0 0.0
2017-Nov-14 09:35N 29°46' W 095°06'0 4.3
2017-Nov-14 09:28N 29°45' W 095°06'1 1.5
2017-Nov-14 08:56N 29°46' W 095°05'3 5.8
2017-Nov-14 08:29N 29°44' W 095°03'2 5.0
2017-Nov-14 08:00N 29°42' W 095°01'3 5.2
2017-Nov-14 07:30N 29°40' W 094°59'3 5.9
2017-Nov-14 07:00N 29°38' W 094°58'3 5.2
2017-Nov-14 06:30N 29°35' W 094°56'8 0.2
2017-Nov-12 20:03N 29°29' W 094°51'0 3.6
2017-Nov-12 19:58N 29°29' W 094°52'2 3.8
2017-Nov-12 19:31N 29°30' W 094°53'2 3.8
2017-Nov-12 19:00N 29°32' W 094°54'2 4.0
2017-Nov-12 18:31N 29°34' W 094°55'2 4.0
2017-Nov-12 18:01N 29°35' W 094°56'2 3.9
2017-Nov-12 17:31N 29°37' W 094°58'2 3.9
2017-Nov-12 17:00N 29°37' W 094°60'1 2.8
2017-Nov-12 16:30N 29°37' W 095°01'0 0.1
2017-Nov-12 16:01N 29°37' W 095°02'0 0.0
2017-Nov-12 15:31N 29°37' W 095°02'0 0.0
2017-Nov-12 15:00N 29°37' W 095°02'0 0.0
2017-Nov-12 14:31N 29°37' W 095°02'0 0.0
2017-Nov-12 14:00N 29°37' W 095°02'0 0.0
2017-Nov-12 13:30N 29°37' W 095°02'0 0.0
2017-Nov-12 13:00N 29°37' W 095°02'0 0.0
2017-Nov-12 12:31N 29°37' W 095°02'0 0.0
2017-Nov-12 12:00N 29°37' W 095°02'0 0.0
2017-Nov-12 11:30N 29°37' W 095°02'0 0.0
2017-Nov-12 11:00N 29°37' W 095°02'0 0.0
2017-Nov-12 10:30N 29°37' W 095°02'0 0.0
2017-Nov-12 10:00N 29°37' W 095°02'0 0.0
2017-Nov-12 09:30N 29°37' W 095°02'0 0.0
2017-Nov-12 09:00N 29°37' W 095°02'0 0.0
2017-Nov-12 08:30N 29°37' W 095°02'0 0.0
2017-Nov-12 08:01N 29°37' W 095°02'0 0.0
2017-Nov-12 07:30N 29°37' W 095°02'0 0.0
2017-Nov-12 07:01N 29°37' W 095°02'0 0.0
2017-Nov-12 06:30N 29°37' W 095°02'0 0.0
2017-Nov-12 06:01N 29°37' W 095°02'0 0.0
2017-Nov-12 05:30N 29°37' W 095°02'0 0.0
2017-Nov-12 05:00N 29°37' W 095°02'0 0.0
2017-Nov-12 04:31N 29°37' W 095°02'0 0.0
2017-Nov-12 04:00N 29°37' W 095°02'0 0.0
2017-Nov-12 03:31N 29°37' W 095°02'0 0.0
2017-Nov-12 03:00N 29°37' W 095°02'0 0.0
2017-Nov-12 02:30N 29°37' W 095°02'0 0.0
2017-Nov-12 02:00N 29°37' W 095°02'0 0.0
2017-Nov-12 01:31N 29°37' W 095°02'0 0.0
2017-Nov-12 01:01N 29°37' W 095°02'0 0.0
2017-Nov-12 00:30N 29°37' W 095°02'0 0.0
2017-Nov-12 00:00N 29°37' W 095°02'0 0.0
2017-Nov-11 23:30N 29°37' W 095°02'0 0.0
2017-Nov-11 23:00N 29°37' W 095°02'0 0.0
2017-Nov-11 22:30N 29°37' W 095°02'0 0.0
2017-Nov-11 22:00N 29°37' W 095°02'0 0.0
2017-Nov-11 21:28N 29°37' W 095°02'0 0.5
2017-Nov-11 21:00N 29°37' W 095°01'0 0.3
2017-Nov-11 20:31N 29°37' W 095°01'0 0.2
2017-Nov-11 20:00N 29°37' W 095°01'0 0.1
2017-Nov-11 19:30N 29°37' W 095°02'0 0.0
2017-Nov-11 19:01N 29°37' W 095°02'0 0.0
2017-Nov-11 18:30N 29°37' W 095°02'0 0.0
2017-Nov-11 18:00N 29°37' W 095°02'0 0.0
2017-Nov-11 17:31N 29°37' W 095°02'0 0.0
2017-Nov-11 16:50N 29°37' W 095°02'0 0.0
2017-Nov-11 16:30N 29°37' W 095°02'0 0.0
2017-Nov-11 15:07N 29°37' W 095°02'0 0.1
2017-Nov-11 15:01N 29°37' W 095°02'0 0.0
2017-Nov-11 14:30N 29°37' W 095°02'0 0.0
2017-Nov-11 14:01N 29°37' W 095°02'0 0.0
2017-Nov-11 13:31N 29°37' W 095°02'0 0.0
2017-Nov-11 13:01N 29°37' W 095°02'0 0.0
2017-Nov-11 12:30N 29°37' W 095°02'0 0.0
2017-Nov-11 12:00N 29°37' W 095°02'0 0.0
2017-Nov-11 11:31N 29°37' W 095°02'0 0.0
2017-Nov-11 11:01N 29°37' W 095°02'0 0.0
2017-Nov-11 10:31N 29°37' W 095°02'0 0.0
2017-Nov-11 10:01N 29°37' W 095°02'0 0.0
2017-Nov-11 09:30N 29°37' W 095°02'0 0.0
2017-Nov-11 09:01N 29°37' W 095°02'0 0.0
2017-Nov-11 08:30N 29°37' W 095°02'0 0.0
2017-Nov-11 08:00N 29°37' W 095°02'0 0.0
2017-Nov-11 07:31N 29°37' W 095°02'0 0.0
2017-Nov-11 07:01N 29°37' W 095°02'0 0.0
2017-Nov-11 06:30N 29°37' W 095°02'0 0.0
2017-Nov-11 06:01N 29°37' W 095°02'0 0.1
2017-Nov-11 05:30N 29°37' W 095°01'0 0.1
2017-Nov-11 05:01N 29°37' W 095°01'0 0.0
2017-Nov-11 04:31N 29°37' W 095°01'0 0.4
2017-Nov-11 04:01N 29°37' W 095°01'3 5.4
2017-Nov-11 03:31N 29°37' W 094°58'3 5.5
2017-Nov-11 03:01N 29°40' W 094°58'3 6.6
2017-Nov-11 02:30N 29°42' W 095°01'5 6.4
2017-Nov-11 01:47N 29°46' W 095°04'1 0.6
2017-Nov-11 00:18N 29°46' W 095°05'0 0.0
2017-Nov-10 22:51N 29°46' W 095°05'0 0.0
2017-Nov-10 21:15N 29°46' W 095°05'0 1.1
2017-Nov-10 20:51N 29°46' W 095°05'2 5.3
2017-Nov-10 20:25N 29°44' W 095°03'2 4.0
2017-Nov-10 20:00N 29°44' W 095°01'0 0.6
2017-Nov-10 19:15N 29°43' W 095°01'0 0.0
2017-Nov-10 00:08N 29°44' W 095°01'0 2.2
2017-Nov-09 23:55N 29°43' W 095°01'0 0.0
2017-Nov-09 22:54N 29°43' W 095°01'0 0.3
2017-Nov-09 22:24N 29°44' W 095°01'3 5.5
2017-Nov-09 21:47N 29°46' W 095°04'1 0.2
2017-Nov-09 18:14N 29°46' W 095°05'2 1.3
2017-Nov-09 16:24N 29°44' W 095°03'2 5.3
2017-Nov-09 16:00N 29°43' W 095°01'2 4.9
2017-Nov-09 15:30N 29°41' W 094°59'2 4.3
2017-Nov-09 14:56N 29°41' W 094°57'1 3.2
2017-Nov-09 14:30N 29°41' W 094°55'1 1.7
2017-Nov-09 13:55N 29°42' W 094°56'1 1.2
2017-Nov-09 13:30N 29°43' W 094°56'1 2.6
2017-Nov-09 12:59N 29°42' W 094°55'2 3.5
2017-Nov-09 12:30N 29°41' W 094°57'3 5.5
2017-Nov-09 12:00N 29°42' W 094°60'3 6.2
2017-Nov-09 11:28N 29°44' W 095°03'3 6.6
2017-Nov-09 11:00N 29°46' W 095°05'3 3.3
2017-Nov-09 10:12N 29°44' W 095°03'1 6.0
2017-Nov-09 10:00N 29°44' W 095°02'1 1.0
2017-Nov-09 09:29N 29°44' W 095°01'0 0.0
2017-Nov-09 09:00N 29°44' W 095°01'0 0.0
2017-Nov-09 08:29N 29°44' W 095°01'0 0.0
2017-Nov-09 07:57N 29°44' W 095°01'0 0.0
2017-Nov-09 07:30N 29°44' W 095°01'  

Dump ship's entire track history